Terminal Aerodrome Forecast
Issued by NWS Grand Forks, ND

Home | Current Version | Previous Version | Graphics & Text | Print | Product List | Glossary On
Versions: 1 2 3 4 5 6 7 8 9 10 11 12 13 14 15 16 17
000
FTUS43 KFGF 171400 AAA
TAFGFK
TAF AMD
KGFK 171409Z 1714/1812 25010KT P6SM SKC
     FM171800 28013G18KT P6SM SKC
     FM172100 33015G22KT P6SM SCT080
     FM180000 01013KT P6SM SKC=

USA.gov is the U.S. government's official web portal to all federal, state and local government web resources and services.